sensor_id;sensor_type;location;lat;lon;timestamp;pressure;altitude;pressure_sealevel;temperature;humidity
59315;BME280;46521;50.160;20.802;2023-11-22T00:04:39;99889.67;;;0.56;86.55
59315;BME280;46521;50.160;20.802;2023-11-22T00:14:41;99911.06;;;0.46;86.46
59315;BME280;46521;50.160;20.802;2023-11-22T00:24:42;99922.97;;;0.50;86.40
59315;BME280;46521;50.160;20.802;2023-11-22T00:34:47;99947.69;;;0.43;86.63
59315;BME280;46521;50.160;20.802;2023-11-22T00:44:48;99953.56;;;0.32;86.49
59315;BME280;46521;50.160;20.802;2023-11-22T00:54:50;99984.06;;;0.16;86.24
59315;BME280;46521;50.160;20.802;2023-11-22T01:04:52;99973.08;;;0.11;86.61
59315;BME280;46521;50.160;20.802;2023-11-22T01:14:53;99981.34;;;0.03;86.35
59315;BME280;46521;50.160;20.802;2023-11-22T01:24:55;99991.28;;;0.11;86.34
59315;BME280;46521;50.160;20.802;2023-11-22T01:34:56;99999.00;;;0.12;86.34
59315;BME280;46521;50.160;20.802;2023-11-22T01:45:00;100002.45;;;0.13;85.92
59315;BME280;46521;50.160;20.802;2023-11-22T01:55:05;100020.08;;;0.08;86.07
59315;BME280;46521;50.160;20.802;2023-11-22T02:05:07;100030.57;;;0.06;85.97
59315;BME280;46521;50.160;20.802;2023-11-22T02:15:09;100047.50;;;0.13;86.00
59315;BME280;46521;50.160;20.802;2023-11-22T02:25:11;100050.00;;;0.15;86.16
59315;BME280;46521;50.160;20.802;2023-11-22T02:35:13;100066.62;;;0.12;85.79
59315;BME280;46521;50.160;20.802;2023-11-22T02:45:20;100069.56;;;-0.08;85.70
59315;BME280;46521;50.160;20.802;2023-11-22T02:55:24;100075.11;;;-0.14;85.92
59315;BME280;46521;50.160;20.802;2023-11-22T03:05:25;100076.63;;;-0.10;86.07
59315;BME280;46521;50.160;20.802;2023-11-22T03:15:27;100086.64;;;-0.19;85.60
59315;BME280;46521;50.160;20.802;2023-11-22T03:25:29;100107.78;;;-0.25;85.50
59315;BME280;46521;50.160;20.802;2023-11-22T03:35:31;100124.20;;;-0.24;85.10
59315;BME280;46521;50.160;20.802;2023-11-22T03:45:32;100143.05;;;-0.21;85.24
59315;BME280;46521;50.160;20.802;2023-11-22T03:55:34;100175.96;;;-0.35;85.01
59315;BME280;46521;50.160;20.802;2023-11-22T04:05:35;100193.05;;;-0.31;84.96
59315;BME280;46521;50.160;20.802;2023-11-22T04:15:37;100210.17;;;-0.43;84.69
59315;BME280;46521;50.160;20.802;2023-11-22T04:25:38;100227.28;;;-0.39;85.35
59315;BME280;46521;50.160;20.802;2023-11-22T04:35:42;100255.95;;;-0.25;85.15
59315;BME280;46521;50.160;20.802;2023-11-22T04:45:44;100266.84;;;-0.18;85.12
59315;BME280;46521;50.160;20.802;2023-11-22T04:55:46;100275.22;;;-0.29;84.51
59315;BME280;46521;50.160;20.802;2023-11-22T05:05:47;100294.52;;;-0.33;84.45
59315;BME280;46521;50.160;20.802;2023-11-22T05:15:49;100320.52;;;-0.33;84.82
59315;BME280;46521;50.160;20.802;2023-11-22T05:25:51;100352.45;;;-0.31;84.59
59315;BME280;46521;50.160;20.802;2023-11-22T05:35:53;100374.64;;;-0.41;84.17
59315;BME280;46521;50.160;20.802;2023-11-22T05:45:55;100391.09;;;-0.41;84.54
59315;BME280;46521;50.160;20.802;2023-11-22T05:55:56;100395.43;;;-0.41;84.22
59315;BME280;46521;50.160;20.802;2023-11-22T06:05:58;100393.14;;;-0.47;84.11
59315;BME280;46521;50.160;20.802;2023-11-22T06:16:00;100400.50;;;-0.56;83.95
59315;BME280;46521;50.160;20.802;2023-11-22T06:26:02;100424.20;;;-0.62;83.87
59315;BME280;46521;50.160;20.802;2023-11-22T06:36:04;100433.91;;;-0.65;83.52
59315;BME280;46521;50.160;20.802;2023-11-22T06:46:05;100446.98;;;-0.67;83.47
59315;BME280;46521;50.160;20.802;2023-11-22T06:56:07;100461.66;;;-0.66;83.48
59315;BME280;46521;50.160;20.802;2023-11-22T07:06:08;100477.32;;;-0.67;83.50
59315;BME280;46521;50.160;20.802;2023-11-22T07:16:11;100491.74;;;-0.62;83.50
59315;BME280;46521;50.160;20.802;2023-11-22T07:26:12;100499.09;;;-0.52;83.59
59315;BME280;46521;50.160;20.802;2023-11-22T07:36:16;100505.49;;;-0.60;83.42
59315;BME280;46521;50.160;20.802;2023-11-22T07:46:18;100512.53;;;-0.62;83.11
59315;BME280;46521;50.160;20.802;2023-11-22T07:56:20;100522.39;;;-0.68;83.29
59315;BME280;46521;50.160;20.802;2023-11-22T08:06:22;100534.30;;;-0.64;83.06
59315;BME280;46521;50.160;20.802;2023-11-22T08:16:24;100547.85;;;-0.58;83.14
59315;BME280;46521;50.160;20.802;2023-11-22T08:26:25;100559.08;;;-0.57;82.67
59315;BME280;46521;50.160;20.802;2023-11-22T08:36:27;100583.71;;;-0.47;82.60
59315;BME280;46521;50.160;20.802;2023-11-22T08:46:32;100582.48;;;-0.40;82.64
59315;BME280;46521;50.160;20.802;2023-11-22T08:56:33;100587.60;;;-0.38;82.30
59315;BME280;46521;50.160;20.802;2023-11-22T09:06:36;100590.64;;;-0.47;82.43
59315;BME280;46521;50.160;20.802;2023-11-22T09:16:37;100608.84;;;-0.47;82.08
59315;BME280;46521;50.160;20.802;2023-11-22T09:26:40;100602.27;;;-0.55;82.41
59315;BME280;46521;50.160;20.802;2023-11-22T09:36:42;100617.34;;;-0.44;82.39
59315;BME280;46521;50.160;20.802;2023-11-22T09:46:47;100620.78;;;-0.43;82.24
59315;BME280;46521;50.160;20.802;2023-11-22T09:56:49;100614.03;;;-0.47;82.05
59315;BME280;46521;50.160;20.802;2023-11-22T10:06:52;100617.89;;;-0.37;82.08
59315;BME280;46521;50.160;20.802;2023-11-22T10:16:58;100629.20;;;-0.21;82.36
59315;BME280;46521;50.160;20.802;2023-11-22T10:27:00;100646.35;;;-0.16;82.20
59315;BME280;46521;50.160;20.802;2023-11-22T10:37:03;100659.05;;;-0.10;81.94
59315;BME280;46521;50.160;20.802;2023-11-22T10:47:05;100682.92;;;-0.02;81.84
59315;BME280;46521;50.160;20.802;2023-11-22T10:57:08;100689.06;;;-0.03;81.90
59315;BME280;46521;50.160;20.802;2023-11-22T11:07:12;100685.89;;;-0.10;81.72
59315;BME280;46521;50.160;20.802;2023-11-22T11:17:17;100687.30;;;-0.03;81.68
59315;BME280;46521;50.160;20.802;2023-11-22T11:27:18;100660.83;;;0.07;81.56
59315;BME280;46521;50.160;20.802;2023-11-22T11:37:20;100660.61;;;0.11;81.26
59315;BME280;46521;50.160;20.802;2023-11-22T11:47:22;100674.83;;;0.22;81.34
59315;BME280;46521;50.160;20.802;2023-11-22T11:57:24;100693.03;;;0.22;80.85
59315;BME280;46521;50.160;20.802;2023-11-22T12:07:25;100700.23;;;0.16;80.91
59315;BME280;46521;50.160;20.802;2023-11-22T12:17:26;100711.70;;;0.12;80.66
59315;BME280;46521;50.160;20.802;2023-11-22T12:27:29;100717.69;;;0.14;80.87
59315;BME280;46521;50.160;20.802;2023-11-22T12:37:30;100708.19;;;0.13;80.70
59315;BME280;46521;50.160;20.802;2023-11-22T12:47:35;100697.63;;;0.16;80.59
59315;BME280;46521;50.160;20.802;2023-11-22T12:57:36;100689.91;;;0.15;80.59
59315;BME280;46521;50.160;20.802;2023-11-22T13:07:39;100700.23;;;0.16;80.55
59315;BME280;46521;50.160;20.802;2023-11-22T13:17:44;100710.72;;;0.15;80.45
59315;BME280;46521;50.160;20.802;2023-11-22T13:27:49;100721.66;;;0.22;80.48
59315;BME280;46521;50.160;20.802;2023-11-22T13:37:51;100744.39;;;0.18;80.21
59315;BME280;46521;50.160;20.802;2023-11-22T13:47:54;100755.77;;;0.15;80.21
59315;BME280;46521;50.160;20.802;2023-11-22T13:58:01;100740.61;;;0.06;79.99
59315;BME280;46521;50.160;20.802;2023-11-22T14:08:05;100753.00;;;0.01;79.75
59315;BME280;46521;50.160;20.802;2023-11-22T14:18:09;100756.61;;;-0.02;79.80
59315;BME280;46521;50.160;20.802;2023-11-22T14:28:11;100779.77;;;0.03;79.70
59315;BME280;46521;50.160;20.802;2023-11-22T14:38:12;100795.08;;;0.09;79.79
59315;BME280;46521;50.160;20.802;2023-11-22T14:48:14;100811.30;;;-0.03;79.54
59315;BME280;46521;50.160;20.802;2023-11-22T14:58:16;100772.64;;;-0.11;79.56
59315;BME280;46521;50.160;20.802;2023-11-22T15:08:17;100774.30;;;-0.10;79.33
59315;BME280;46521;50.160;20.802;2023-11-22T15:18:19;100803.49;;;-0.03;79.04
59315;BME280;46521;50.160;20.802;2023-11-22T15:28:20;100798.65;;;-0.11;78.96
59315;BME280;46521;50.160;20.802;2023-11-22T15:38:24;100786.14;;;-0.22;78.74
59315;BME280;46521;50.160;20.802;2023-11-22T15:48:25;100785.72;;;-0.12;78.85
59315;BME280;46521;50.160;20.802;2023-11-22T15:58:26;100784.02;;;-0.13;78.48
59315;BME280;46521;50.160;20.802;2023-11-22T16:08:31;100785.86;;;-0.15;78.63
59315;BME280;46521;50.160;20.802;2023-11-22T16:18:33;100811.48;;;-0.27;78.65
59315;BME280;46521;50.160;20.802;2023-11-22T16:28:35;100790.83;;;-0.30;78.45
59315;BME280;46521;50.160;20.802;2023-11-22T16:38:38;100804.97;;;-0.35;78.39
59315;BME280;46521;50.160;20.802;2023-11-22T16:48:39;100780.81;;;-0.38;78.37
59315;BME280;46521;50.160;20.802;2023-11-22T16:58:41;100805.52;;;-0.29;77.64
59315;BME280;46521;50.160;20.802;2023-11-22T17:08:42;100831.24;;;-0.23;78.19
59315;BME280;46521;50.160;20.802;2023-11-22T17:18:44;100829.94;;;-0.52;76.95
59315;BME280;46521;50.160;20.802;2023-11-22T17:28:45;100802.98;;;-0.49;77.10
59315;BME280;46521;50.160;20.802;2023-11-22T17:38:49;100810.72;;;-0.29;77.67
59315;BME280;46521;50.160;20.802;2023-11-22T17:48:50;100803.55;;;-0.24;76.97
59315;BME280;46521;50.160;20.802;2023-11-22T17:58:52;100811.34;;;-0.24;77.32
59315;BME280;46521;50.160;20.802;2023-11-22T18:08:57;100828.36;;;-0.35;77.00
59315;BME280;46521;50.160;20.802;2023-11-22T18:18:58;100838.96;;;-0.40;77.27
59315;BME280;46521;50.160;20.802;2023-11-22T18:29:03;100826.87;;;-0.41;77.24
59315;BME280;46521;50.160;20.802;2023-11-22T18:39:07;100835.33;;;-0.36;77.45
59315;BME280;46521;50.160;20.802;2023-11-22T18:49:08;100830.27;;;-0.39;77.03
59315;BME280;46521;50.160;20.802;2023-11-22T18:59:10;100819.07;;;-0.41;77.26
59315;BME280;46521;50.160;20.802;2023-11-22T19:09:11;100806.87;;;-0.39;77.00
59315;BME280;46521;50.160;20.802;2023-11-22T19:19:13;100790.89;;;-0.50;76.77
59315;BME280;46521;50.160;20.802;2023-11-22T19:29:14;100765.56;;;-0.45;76.63
59315;BME280;46521;50.160;20.802;2023-11-22T19:39:16;100773.08;;;-0.39;76.75
59315;BME280;46521;50.160;20.802;2023-11-22T19:49:17;100768.64;;;-0.37;76.52
59315;BME280;46521;50.160;20.802;2023-11-22T19:59:19;100782.06;;;-0.46;76.46
59315;BME280;46521;50.160;20.802;2023-11-22T20:09:20;100771.03;;;-0.51;76.46
59315;BME280;46521;50.160;20.802;2023-11-22T20:19:22;100782.20;;;-0.49;76.33
59315;BME280;46521;50.160;20.802;2023-11-22T20:29:24;100755.16;;;-0.45;75.96
59315;BME280;46521;50.160;20.802;2023-11-22T20:39:26;100759.43;;;-0.44;75.83
59315;BME280;46521;50.160;20.802;2023-11-22T20:49:28;100743.98;;;-0.47;75.63
59315;BME280;46521;50.160;20.802;2023-11-22T20:59:32;100753.13;;;-0.58;75.31
59315;BME280;46521;50.160;20.802;2023-11-22T21:09:34;100729.88;;;-0.61;75.17
59315;BME280;46521;50.160;20.802;2023-11-22T21:19:36;100688.99;;;-0.57;75.17
59315;BME280;46521;50.160;20.802;2023-11-22T21:29:38;100689.55;;;-0.50;75.02
59315;BME280;46521;50.160;20.802;2023-11-22T21:39:39;100686.66;;;-0.44;74.84
59315;BME280;46521;50.160;20.802;2023-11-22T21:49:41;100671.86;;;-0.42;74.77
59315;BME280;46521;50.160;20.802;2023-11-22T21:59:43;100646.01;;;-0.45;74.95
59315;BME280;46521;50.160;20.802;2023-11-22T22:09:45;100623.96;;;-0.56;74.91
59315;BME280;46521;50.160;20.802;2023-11-22T22:19:46;100638.21;;;-0.45;75.08
59315;BME280;46521;50.160;20.802;2023-11-22T22:29:48;100624.86;;;-0.57;74.90
59315;BME280;46521;50.160;20.802;2023-11-22T22:39:49;100627.13;;;-0.68;75.33
59315;BME280;46521;50.160;20.802;2023-11-22T22:49:51;100629.45;;;-0.62;75.09
59315;BME280;46521;50.160;20.802;2023-11-22T22:59:52;100600.86;;;-0.62;75.09
59315;BME280;46521;50.160;20.802;2023-11-22T23:09:54;100577.77;;;-0.68;75.07
59315;BME280;46521;50.160;20.802;2023-11-22T23:19:57;100547.46;;;-0.67;75.15
59315;BME280;46521;50.160;20.802;2023-11-22T23:29:58;100556.70;;;-0.62;75.04
59315;BME280;46521;50.160;20.802;2023-11-22T23:40:00;100538.66;;;-0.65;75.17
59315;BME280;46521;50.160;20.802;2023-11-22T23:50:10;100537.68;;;-0.62;75.08
